Aviation Digital Data Service (ADDS)

Output produced by METARs form (0025 UTC 03 August 2015)
found at http://www.aviationweather.gov/adds/metars/
 
KFIG 022354Z AUTO 19007KT 10SM CLR 26/16 A2990 RMK AO2 SLP116 T02560161 10289 20256 58003
KFIG 022254Z AUTO 22007KT 10SM CLR 27/15 A2991 RMK AO2 SLP120 T02720150
KFIG 022154Z AUTO 20008KT 10SM FEW055 28/15 A2992 RMK AO2 SLP123 T02780150
KFIG 022054Z AUTO 23009G17KT 10SM SCT060 28/15 A2991 RMK AO2 SLP120 T02780150 58015
KFIG 021954Z AUTO 22008KT 10SM FEW055 27/14 A2992 RMK AO2 SLP124 T02720144
KFIG 021854Z AUTO 24006KT 10SM FEW055 28/14 A2995 RMK AO2 SLP132 T02830144
KFIG 021754Z AUTO 20005KT 10SM FEW042 27/16 A2995 RMK AO2 SLP135 T02670156 10272 20144 56009
KFIG 021654Z AUTO 23008G17KT 190V250 10SM SCT042 SCT050 26/15 A2996 RMK AO2 SLP136 T02610150
KFIG 021554Z AUTO 19008KT 10SM FEW043 SCT050 24/14 A2997 RMK AO2 SLP141 T02390144
KFIG 021454Z AUTO 22008KT 10SM BKN060 22/14 A2998 RMK AO2 SLP146 T02170144 51003
KFIG 021354Z AUTO 22008KT 10SM CLR 21/14 A2998 RMK AO2 SLP143 T02110144
KFIG 021254Z AUTO 21007KT 10SM SCT060 17/14 A2998 RMK AO2 SLP145 T01720139
KFIG 021154Z AUTO 00000KT 10SM FEW002 14/13 A2997 RMK AO2 SLP144 T01440133 10144 20111 53005
KFIG 021144Z AUTO 00000KT 9SM FEW002 14/13 A2997 RMK AO2 T01390128
KFIG 021123Z AUTO 00000KT 3SM BR BKN002 13/12 A2997 RMK AO2 T01280122
KFIG 021117Z AUTO 00000KT 1SM BR VV002 13/12 A2997 RMK AO2 T01280122
KFIG 021054Z AUTO 00000KT 1/4SM FG VV002 12/11 A2996 RMK AO2 SLP142 T01170111
KFIG 021025Z AUTO 00000KT 1/4SM FG VV002 12/11 A2996 RMK AO2 T01170111
KFIG 021021Z AUTO 00000KT 1 1/4SM BR BKN002 12/11 A2996 RMK AO2 T01170111
KFIG 021002Z AUTO 00000KT 3/4SM BR VV002 12/11 A2996 RMK AO2 T01170111
KFIG 020954Z AUTO 00000KT 1/4SM FG VV002 12/11 A2996 RMK AO2 SLP139 T01170106
KFIG 020946Z AUTO 00000KT 3/4SM BR VV002 11/11 A2996 RMK AO2 VIS 1/4V5 T01110106
KFIG 020941Z AUTO 00000KT 1 3/4SM BR SCT002 12/11 A2996 RMK AO2 T01170106
KFIG 020939Z AUTO 35003KT 4SM BR SCT002 12/11 A2995 RMK AO2 T01170106
KFIG 020854Z AUTO 00000KT 10SM CLR 12/11 A2996 RMK AO2 SLP138 T01220111 58004
KFIG 020754Z AUTO 00000KT 9SM CLR 14/12 A2996 RMK AO2 SLP138 T01390122
KFIG 020654Z AUTO 00000KT 10SM FEW060 SCT090 14/13 A2997 RMK AO2 SLP139 T01440133
KFIG 020554Z AUTO 24003KT 10SM CLR 14/13 A2997 RMK AO2 SLP140 T01440128 10211 20139 50003
KFIG 020454Z AUTO 34004KT 10SM CLR 14/13 A2997 RMK AO2 SLP140 T01440133 402780144
KFIG 020354Z AUTO 00000KT 10SM CLR 16/14 A2996 RMK AO2 SLP138 T01610139
KFIG 020254Z AUTO 00000KT 10SM CLR 17/14 A2996 RMK AO2 SLP136 T01720139 51011
KFIG 020154Z AUTO 00000KT 10SM CLR 19/14 A2995 RMK AO2 SLP134 T01890139
KFIG 020054Z AUTO 33003KT 10SM CLR 19/16 A2994 RMK AO2 SLP129 T01890156
KFIG 012354Z AUTO 22003KT 10SM BKN100 BKN110 21/13 A2993 RMK AO2 SLP126 60000 T02110133 10278 20200 53006
KFIG 012254Z AUTO 29005KT 10SM OVC085 22/13 A2992 RMK AO2 RAB35E47 SLP125 P0000 T02170133
KFIG 012154Z AUTO 26008KT 10SM BKN095 OVC110 24/12 A2991 RMK AO2 SLP120 T02390122
KFIG 012054Z AUTO 29008KT 10SM SCT060 BKN080 OVC110 25/12 A2991 RMK AO2 RAB38E52 SLP119 P0000 60000 T02500122 55006
KFIG 011954Z AUTO 26008KT 10SM CLR 27/11 A2990 RMK AO2 SLP117 T02670111
KFIG 011854Z AUTO 25009KT 10SM SCT095 27/12 A2991 RMK AO2 SLP119 T02720117
KFIG 011754Z AUTO 29008KT 10SM FEW060 BKN090 26/11 A2993 RMK AO2 SLP124 T02560111 10267 20183 58001
KFIG 011654Z AUTO 25012G17KT 220V290 10SM SCT055 BKN085 27/12 A2994 RMK AO2 SLP127 T02670122
KFIG 011554Z AUTO 29008KT 10SM FEW050 FEW060 24/12 A2994 RMK AO2 SLP128 T02440117
KFIG 011454Z AUTO 30010KT 10SM FEW038 FEW050 24/13 A2993 RMK AO2 SLP124 T02440128 51005
KFIG 011354Z AUTO 30007KT 10SM CLR 23/14 A2993 RMK AO2 SLP123 T02330144
KFIG 011254Z AUTO VRB04KT 10SM CLR 22/16 A2992 RMK AO2 SLP122 T02170156